Time;durP1;ratioP1;P1;durP2;ratioP2;P2;SDS_P1;SDS_P2;PMS_P1;PMS_P2;Temp;Humidity;BMP_temperature;BMP_pressure;BME280_temperature;BME280_humidity;BME280_pressure;Samples;Min_cycle;Max_cycle;Signal;HPM_P1;HPM_P2
2023/01/18 00:01:43;;;;;;;54.08;22.35;;;;;;;2.98;100.00;97458.00;5159910;27;20051;-68
2023/01/18 00:04:09;;;;;;;47.72;21.55;;;;;;;2.94;100.00;97462.56;5160103;27;20392;-63
2023/01/18 00:06:36;;;;;;;41.72;19.88;;;;;;;2.91;100.00;97468.69;5160020;27;20054;-66
2023/01/18 00:09:02;;;;;;;42.88;21.08;;;;;;;3.10;100.00;97469.81;5159964;27;20415;-68
2023/01/18 00:11:28;;;;;;;44.95;21.75;;;;;;;3.19;100.00;97467.69;5160155;27;20055;-63
2023/01/18 00:13:55;;;;;;;46.67;21.05;;;;;;;2.95;100.00;97490.41;5159712;27;20728;-68
2023/01/18 00:16:22;;;;;;;45.20;21.88;;;;;;;2.89;100.00;97484.47;5159594;27;20331;-63
2023/01/18 00:18:52;;;;;;;46.75;20.77;;;;;;;2.88;100.00;97492.97;5159670;27;20051;-64
2023/01/18 00:21:19;;;;;;;47.50;21.02;;;;;;;2.74;100.00;97491.53;5158903;27;20055;-69
2023/01/18 00:23:46;;;;;;;49.97;22.55;;;;;;;2.76;100.00;97497.34;5159849;27;20069;-70
2023/01/18 00:26:13;;;;;;;44.78;20.45;;;;;;;2.84;100.00;97501.00;5159739;27;20050;-65
2023/01/18 00:28:40;;;;;;;42.05;20.48;;;;;;;2.83;100.00;97494.81;5159771;27;20083;-66
2023/01/18 00:31:09;;;;;;;41.08;20.85;;;;;;;2.73;100.00;97500.78;5159439;27;20042;-69
2023/01/18 00:33:35;;;;;;;47.45;21.50;;;;;;;3.27;100.00;97502.69;5159555;27;20046;-63
2023/01/18 00:36:03;;;;;;;40.95;20.48;;;;;;;2.87;100.00;97523.88;5159434;27;20120;-68
2023/01/18 00:38:30;;;;;;;52.35;21.88;;;;;;;2.97;100.00;97532.22;5159576;27;20051;-67
2023/01/18 00:40:57;;;;;;;46.75;21.15;;;;;;;2.95;100.00;97547.25;5159367;27;20077;-65
2023/01/18 00:43:38;;;;;;;49.70;20.67;;;;;;;2.83;100.00;97546.25;5159701;27;20061;-65
2023/01/18 00:46:05;;;;;;;50.53;22.17;;;;;;;2.71;100.00;97551.75;5159167;27;20050;-63
2023/01/18 00:48:31;;;;;;;42.95;20.42;;;;;;;2.68;100.00;97538.94;5159149;27;20051;-62
2023/01/18 00:50:57;;;;;;;45.17;20.65;;;;;;;2.75;100.00;97536.38;5159425;27;20114;-68
2023/01/18 00:53:23;;;;;;;43.95;21.63;;;;;;;2.87;100.00;97540.91;5159279;27;20056;-62
2023/01/18 00:55:50;;;;;;;41.85;20.30;;;;;;;2.89;100.00;97535.13;5159058;27;20070;-68
2023/01/18 00:58:16;;;;;;;50.10;22.27;;;;;;;3.08;100.00;97548.69;5158998;27;20058;-62
2023/01/18 01:00:43;;;;;;;45.15;21.40;;;;;;;2.89;100.00;97552.16;5159334;27;20307;-68
2023/01/18 01:03:09;;;;;;;49.60;23.13;;;;;;;3.08;100.00;97556.03;5158856;27;20047;-64
2023/01/18 01:08:22;;;;;;;43.80;20.42;;;;;;;2.74;100.00;97585.47;5158951;27;20065;-66
2023/01/18 01:10:50;;;;;;;49.58;22.35;;;;;;;2.74;100.00;97580.03;5159223;27;20046;-68
2023/01/18 01:27:04;;;;;;;48.35;18.17;;;;;;;2.91;100.00;97598.59;5158970;27;20187;-65
2023/01/18 01:29:31;;;;;;;40.42;18.95;;;;;;;2.72;100.00;97610.16;5159054;27;20328;-66
2023/01/18 01:31:57;;;;;;;40.97;17.08;;;;;;;2.65;100.00;97609.22;5158752;27;20054;-69
2023/01/18 01:34:23;;;;;;;42.17;18.80;;;;;;;2.58;100.00;97607.13;5158163;27;20047;-62
2023/01/18 01:36:50;;;;;;;44.30;19.15;;;;;;;2.73;100.00;97600.91;5158591;27;20056;-68
2023/01/18 01:39:16;;;;;;;42.20;17.83;;;;;;;2.66;100.00;97595.31;5158315;27;20094;-66
2023/01/18 01:41:42;;;;;;;37.33;17.67;;;;;;;2.43;100.00;97599.78;5158733;27;20174;-62
2023/01/18 01:44:54;;;;;;;42.28;17.83;;;;;;;2.53;100.00;97594.66;5158292;27;20047;-70
2023/01/18 01:47:30;;;;;;;37.72;17.85;;;;;;;2.51;100.00;97593.41;5158488;27;20050;-64
2023/01/18 01:50:01;;;;;;;42.35;19.30;;;;;;;2.63;100.00;97587.13;5158338;27;20061;-69
2023/01/18 01:52:31;;;;;;;45.25;18.98;;;;;;;2.71;100.00;97591.56;5158363;27;20065;-61
2023/01/18 01:55:01;;;;;;;43.22;20.48;;;;;;;3.06;100.00;97594.28;5158402;27;20062;-70
2023/01/18 01:57:32;;;;;;;48.95;20.58;;;;;;;2.81;100.00;97604.56;5158117;27;20050;-69
2023/01/18 02:00:00;;;;;;;45.22;18.90;;;;;;;2.73;100.00;97625.28;5158581;27;20051;-70
2023/01/18 02:02:30;;;;;;;43.95;19.92;;;;;;;3.04;100.00;97608.19;5157986;27;20046;-68
2023/01/18 02:04:58;;;;;;;48.80;20.27;;;;;;;3.32;100.00;97606.44;5158458;27;20051;-62
2023/01/18 02:07:25;;;;;;;48.88;20.80;;;;;;;3.41;100.00;97612.44;5158186;27;20327;-68
2023/01/18 02:09:53;;;;;;;51.40;21.67;;;;;;;3.49;100.00;97623.06;5157936;27;20047;-64
2023/01/18 02:12:19;;;;;;;47.22;20.98;;;;;;;3.58;100.00;97651.91;5158177;27;20056;-70
2023/01/18 02:14:46;;;;;;;52.13;21.48;;;;;;;3.37;100.00;97671.97;5158094;27;20051;-63
2023/01/18 02:17:27;;;;;;;50.58;20.83;;;;;;;3.11;100.00;97683.38;5158143;27;20050;-63
2023/01/18 02:20:28;;;;;;;53.92;21.95;;;;;;;3.00;100.00;97703.97;5157801;27;20062;-62
2023/01/18 02:23:24;;;;;;;51.33;21.77;;;;;;;3.28;100.00;97687.63;5144614;27;20115;-66
2023/01/18 02:26:06;;;;;;;43.50;18.30;;;;;;;2.90;100.00;97697.19;5155251;27;20412;-63
2023/01/18 02:28:35;;;;;;;49.10;19.05;;;;;;;2.91;100.00;97690.63;5157883;27;20106;-64
2023/01/18 02:31:09;;;;;;;42.13;19.30;;;;;;;2.83;100.00;97688.88;5157574;27;20059;-65
2023/01/18 02:33:40;;;;;;;47.35;19.75;;;;;;;2.95;100.00;97669.84;5157584;27;20051;-69
2023/01/18 02:36:06;;;;;;;56.88;20.80;;;;;;;3.25;100.00;97661.25;5158030;27;20061;-63
2023/01/18 02:38:40;;;;;;;50.55;21.85;;;;;;;3.18;100.00;97671.94;5157650;27;20098;-70
2023/01/18 02:41:12;;;;;;;54.50;22.27;;;;;;;3.64;100.00;97664.81;5157812;27;20323;-66
2023/01/18 02:46:32;;;;;;;68.90;24.60;;;;;;;3.17;100.00;97676.56;5160863;27;20061;-64
2023/01/18 02:49:03;;;;;;;56.08;25.02;;;;;;;3.23;100.00;97688.69;5161483;27;20123;-65
2023/01/18 02:51:29;;;;;;;47.55;19.30;;;;;;;3.14;100.00;97703.56;5161329;27;20053;-62
2023/01/18 02:53:56;;;;;;;58.65;23.02;;;;;;;3.21;100.00;97692.88;5161486;27;20315;-69
2023/01/18 02:56:28;;;;;;;56.35;24.55;;;;;;;3.50;100.00;97691.63;5160903;27;20473;-62
2023/01/18 02:58:58;;;;;;;52.55;22.42;;;;;;;2.98;100.00;97722.50;5161357;27;20051;-66
2023/01/18 03:01:30;;;;;;;63.10;22.65;;;;;;;3.62;100.00;97699.59;5161189;27;20046;-65
2023/01/18 03:04:00;;;;;;;61.45;23.33;;;;;;;3.35;100.00;97700.53;5160763;27;20141;-62
2023/01/18 03:06:29;;;;;;;47.17;19.63;;;;;;;3.41;100.00;97709.97;5161186;27;20050;-68
2023/01/18 03:08:57;;;;;;;48.58;22.55;;;;;;;3.22;100.00;97727.72;5160914;27;20051;-69
2023/01/18 03:11:33;;;;;;;47.13;20.30;;;;;;;3.59;100.00;97718.50;5161128;27;20106;-62
2023/01/18 03:14:11;;;;;;;51.50;20.30;;;;;;;2.93;100.00;97747.94;5160785;27;20061;-66
2023/01/18 03:16:56;;;;;;;47.17;20.77;;;;;;;3.48;100.00;97727.16;5161009;27;20061;-67
2023/01/18 03:22:17;;;;;;;54.27;20.73;;;;;;;3.58;100.00;97744.03;5161055;27;20069;-62
2023/01/18 03:24:44;;;;;;;48.28;19.70;;;;;;;3.69;100.00;97736.91;5160774;27;20047;-65
2023/01/18 03:35:30;;;;;;;50.13;20.63;;;;;;;3.43;100.00;97795.19;5160457;27;20057;-69
2023/01/18 03:37:58;;;;;;;52.33;21.65;;;;;;;3.15;100.00;97797.97;5160494;27;20053;-66
2023/01/18 03:40:28;;;;;;;51.97;21.55;;;;;;;3.28;100.00;97769.66;5160403;27;20055;-68
2023/01/18 03:43:01;;;;;;;55.42;21.70;;;;;;;3.26;100.00;97752.97;5160545;27;20047;-66
2023/01/18 03:45:32;;;;;;;49.27;19.37;;;;;;;2.99;100.00;97764.69;5160291;27;20113;-69
2023/01/18 03:47:58;;;;;;;55.53;21.35;;;;;;;3.16;100.00;97747.31;5160665;27;20050;-69
2023/01/18 03:50:32;;;;;;;55.58;21.33;;;;;;;3.05;100.00;97736.22;5160108;27;20047;-68
2023/01/18 03:53:05;;;;;;;46.83;19.05;;;;;;;2.92;100.00;97743.63;5160546;27;20055;-68
2023/01/18 03:55:38;;;;;;;53.92;21.48;;;;;;;3.00;100.00;97717.50;5160133;27;20051;-62
2023/01/18 03:58:08;;;;;;;59.92;23.35;;;;;;;2.93;100.00;97714.63;5160180;27;20051;-63
2023/01/18 04:00:35;;;;;;;55.15;20.35;;;;;;;2.82;100.00;97692.72;5160408;27;20047;-68
2023/01/18 04:03:02;;;;;;;50.65;19.27;;;;;;;2.85;100.00;97692.03;5159803;27;20076;-69
2023/01/18 04:05:28;;;;;;;46.53;20.23;;;;;;;2.86;100.00;97700.94;5160207;27;20046;-63
2023/01/18 04:07:54;;;;;;;52.75;19.40;;;;;;;2.74;100.00;97694.50;5159958;27;20051;-67
2023/01/18 04:10:20;;;;;;;63.70;20.88;;;;;;;2.76;100.00;97680.59;5160223;27;20348;-63
2023/01/18 04:12:46;;;;;;;57.33;19.98;;;;;;;2.78;100.00;97675.63;5159782;27;20061;-68
2023/01/18 04:15:14;;;;;;;57.40;19.13;;;;;;;2.84;100.00;97674.22;5159636;27;20457;-63
2023/01/18 04:17:41;;;;;;;51.53;19.20;;;;;;;2.77;100.00;97672.13;5159577;27;20050;-62
2023/01/18 04:20:08;;;;;;;59.08;19.35;;;;;;;2.64;100.00;97673.34;5159583;27;20069;-65
2023/01/18 04:22:35;;;;;;;59.10;18.30;;;;;;;2.65;100.00;97661.41;5159604;27;20054;-68
2023/01/18 04:25:01;;;;;;;67.00;18.65;;;;;;;2.70;100.00;97655.72;5159407;27;20050;-62
2023/01/18 04:27:27;;;;;;;54.00;18.48;;;;;;;2.48;100.00;97651.69;5159698;27;20107;-69
2023/01/18 04:29:53;;;;;;;80.60;17.38;;;;;;;2.61;100.00;97635.41;5159433;27;20372;-63
2023/01/18 04:32:20;;;;;;;71.60;16.75;;;;;;;2.60;100.00;97621.09;5159538;27;20053;-69
2023/01/18 04:34:46;;;;;;;53.55;17.63;;;;;;;2.61;100.00;97614.53;5159401;27;20057;-62
2023/01/18 04:37:13;;;;;;;66.40;15.57;;;;;;;2.91;100.00;97609.44;5159703;27;20331;-68
2023/01/18 04:39:39;;;;;;;55.78;18.08;;;;;;;3.00;100.00;97609.22;5159486;27;20051;-66
2023/01/18 04:42:05;;;;;;;63.55;17.42;;;;;;;2.74;100.00;97616.00;5160126;27;20072;-66
2023/01/18 04:44:31;;;;;;;56.15;16.92;;;;;;;2.76;100.00;97604.81;5159000;27;20057;-63
2023/01/18 04:46:58;;;;;;;65.03;17.73;;;;;;;2.83;100.00;97611.19;5159473;27;20062;-68
2023/01/18 04:49:24;;;;;;;37.75;17.00;;;;;;;2.72;100.00;97606.66;5159002;27;20046;-63
2023/01/18 04:51:51;;;;;;;46.90;16.90;;;;;;;2.78;100.00;97605.25;5159007;27;20141;-68
2023/01/18 04:54:17;;;;;;;46.28;15.80;;;;;;;3.24;100.00;97592.75;5159062;27;20451;-66
2023/01/18 04:56:44;;;;;;;62.72;15.30;;;;;;;2.77;100.00;97593.66;5158869;27;20069;-66
2023/01/18 04:59:13;;;;;;;31.35;13.57;;;;;;;2.63;100.00;97595.22;5159219;27;20056;-68
2023/01/18 05:01:40;;;;;;;32.28;14.10;;;;;;;2.95;100.00;97590.56;5158736;27;20434;-62
2023/01/18 05:04:06;;;;;;;32.65;15.13;;;;;;;3.02;100.00;97590.72;5159082;27;20046;-69
2023/01/18 05:06:32;;;;;;;35.53;15.15;;;;;;;3.40;100.00;97594.59;5158842;27;20047;-62
2023/01/18 05:08:59;;;;;;;45.30;14.65;;;;;;;3.20;100.00;97610.88;5158335;27;20050;-70
2023/01/18 05:11:25;;;;;;;46.80;16.40;;;;;;;3.02;100.00;97617.78;5158668;27;20055;-65
2023/01/18 05:13:52;;;;;;;38.90;14.27;;;;;;;2.83;100.00;97627.44;5158978;27;20068;-68
2023/01/18 05:16:20;;;;;;;35.17;14.77;;;;;;;3.06;100.00;97613.25;5158783;27;20066;-68
2023/01/18 05:18:46;;;;;;;35.00;14.38;;;;;;;3.11;100.00;97618.38;5158455;27;20042;-64
2023/01/18 05:21:13;;;;;;;42.63;14.23;;;;;;;3.00;100.00;97626.28;5158437;27;20043;-66
2023/01/18 05:23:40;;;;;;;42.80;15.23;;;;;;;2.95;100.00;97615.72;5158479;27;20420;-72
2023/01/18 05:26:13;;;;;;;44.25;13.88;;;;;;;2.91;100.00;97603.25;5158891;27;20181;-65
2023/01/18 05:28:39;;;;;;;46.72;15.75;;;;;;;3.01;100.00;97605.41;5158425;27;20442;-65
2023/01/18 05:31:06;;;;;;;50.97;14.98;;;;;;;2.85;100.00;97601.94;5158832;27;20050;-67
2023/01/18 05:33:32;;;;;;;54.05;15.23;;;;;;;2.95;100.00;97601.38;5158239;27;20394;-69
2023/01/18 05:35:58;;;;;;;54.08;15.40;;;;;;;2.74;100.00;97605.19;5158494;27;20057;-63
2023/01/18 05:38:24;;;;;;;53.90;14.50;;;;;;;2.94;100.00;97610.66;5158184;27;20431;-71
2023/01/18 05:40:53;;;;;;;39.75;12.95;;;;;;;2.51;100.00;97606.94;5158538;27;20056;-62
2023/01/18 05:43:20;;;;;;;39.55;13.75;;;;;;;2.68;100.00;97589.56;5157981;27;20106;-62
2023/01/18 05:45:47;;;;;;;39.08;14.57;;;;;;;2.58;100.00;97580.06;5158127;27;20051;-63
2023/01/18 05:48:13;;;;;;;36.35;14.60;;;;;;;2.56;100.00;97569.56;5158021;27;20058;-63
2023/01/18 05:50:40;;;;;;;40.60;14.68;;;;;;;2.83;100.00;97561.69;5157879;27;20053;-63
2023/01/18 05:53:06;;;;;;;30.95;13.07;;;;;;;2.47;100.00;97560.88;5158081;27;20046;-63
2023/01/18 05:55:33;;;;;;;36.30;13.02;;;;;;;2.81;100.00;97555.84;5157784;27;20050;-64
2023/01/18 05:57:59;;;;;;;38.65;14.55;;;;;;;2.78;100.00;97529.50;5158257;27;20062;-71
2023/01/18 06:00:27;;;;;;;36.13;13.93;;;;;;;2.65;100.00;97528.03;5158034;27;20138;-66
2023/01/18 06:02:53;;;;;;;27.65;11.35;;;;;;;2.48;100.00;97523.78;5158134;27;20046;-62
2023/01/18 06:05:20;;;;;;;32.17;12.25;;;;;;;2.59;100.00;97522.09;5157684;27;20058;-64
2023/01/18 06:07:47;;;;;;;21.80;10.23;;;;;;;2.52;100.00;97511.13;5158261;27;20046;-67
2023/01/18 06:10:13;;;;;;;33.42;12.13;;;;;;;2.55;100.00;97491.47;5157612;27;20046;-61
2023/01/18 06:12:40;;;;;;;25.85;11.23;;;;;;;2.63;100.00;97493.19;5157686;27;20054;-65
2023/01/18 06:15:07;;;;;;;28.45;12.35;;;;;;;2.54;100.00;97498.03;5157778;27;20433;-67
2023/01/18 06:17:34;;;;;;;23.88;10.90;;;;;;;2.36;100.00;97493.00;5157412;27;20412;-63
2023/01/18 06:20:01;;;;;;;22.38;10.45;;;;;;;2.38;100.00;97483.75;5158816;27;20050;-70
2023/01/18 06:22:27;;;;;;;26.45;12.18;;;;;;;2.41;100.00;97481.13;5161227;27;20339;-71
2023/01/18 06:24:54;;;;;;;32.88;12.32;;;;;;;2.39;100.00;97469.88;5161650;27;20115;-67
2023/01/18 06:27:20;;;;;;;32.83;10.80;;;;;;;2.43;100.00;97461.84;5161281;27;20047;-66
2023/01/18 06:29:46;;;;;;;51.47;14.48;;;;;;;2.52;100.00;97451.63;5161084;27;20047;-68
2023/01/18 06:32:12;;;;;;;48.67;14.13;;;;;;;2.44;100.00;97439.09;5161054;27;20047;-67
2023/01/18 06:34:39;;;;;;;72.22;14.50;;;;;;;2.31;100.00;97425.66;5161646;27;20043;-70
2023/01/18 06:37:06;;;;;;;60.45;14.73;;;;;;;2.31;100.00;97425.66;5160967;27;20047;-67
2023/01/18 06:39:32;;;;;;;37.17;13.93;;;;;;;2.21;100.00;97422.72;5161423;27;20047;-67
2023/01/18 06:41:58;;;;;;;54.63;14.90;;;;;;;2.36;100.00;97408.38;5161090;27;20050;-63
2023/01/18 06:44:24;;;;;;;54.08;16.23;;;;;;;2.48;100.00;97392.03;5160689;27;20051;-67
2023/01/18 06:46:50;;;;;;;41.53;14.98;;;;;;;2.26;100.00;97371.06;5161061;27;20065;-68
2023/01/18 06:49:17;;;;;;;43.72;14.48;;;;;;;2.36;100.00;97378.63;5161140;27;20335;-68
2023/01/18 06:51:44;;;;;;;42.22;14.77;;;;;;;2.38;100.00;97362.84;5160930;27;20043;-60
2023/01/18 06:54:10;;;;;;;65.85;16.40;;;;;;;2.57;100.00;97354.75;5160747;27;20047;-61
2023/01/18 06:56:36;;;;;;;44.25;14.98;;;;;;;2.37;100.00;97345.06;5160887;27;20150;-70
2023/01/18 06:59:21;;;;;;;61.67;16.98;;;;;;;2.65;100.00;97346.75;5160304;27;20047;-61
2023/01/18 07:01:47;;;;;;;59.95;17.77;;;;;;;2.85;100.00;97326.66;5160426;27;20103;-65
2023/01/18 07:04:13;;;;;;;76.60;17.60;;;;;;;2.87;100.00;97324.38;5160620;27;20122;-69
2023/01/18 07:06:39;;;;;;;95.43;18.25;;;;;;;2.72;100.00;97314.44;5160521;27;20055;-65
2023/01/18 07:09:08;;;;;;;110.88;20.20;;;;;;;2.74;100.00;97304.81;5160494;27;20046;-65
2023/01/18 07:11:35;;;;;;;163.07;21.38;;;;;;;2.77;100.00;97306.03;5160725;27;20050;-69
2023/01/18 07:14:02;;;;;;;103.93;18.88;;;;;;;2.86;100.00;97298.44;5148666;27;20302;-71
2023/01/18 07:16:29;;;;;;;80.88;17.00;;;;;;;3.02;100.00;97288.28;5139930;28;20377;-73
2023/01/18 07:18:55;;;;;;;125.38;20.35;;;;;;;2.73;100.00;97303.25;5140159;28;20142;-70
2023/01/18 07:21:28;;;;;;;79.88;18.58;;;;;;;2.75;100.00;97292.84;5139718;28;20047;-69
2023/01/18 07:23:54;;;;;;;70.05;18.60;;;;;;;2.57;100.00;97284.41;5140111;28;20195;-63
2023/01/18 07:26:21;;;;;;;127.53;20.92;;;;;;;2.76;100.00;97277.38;5139674;28;20118;-66
2023/01/18 07:28:48;;;;;;;77.57;17.80;;;;;;;2.86;100.00;97262.47;5139795;28;20051;-63
2023/01/18 07:31:15;;;;;;;84.57;17.60;;;;;;;2.64;100.00;97261.34;5139011;27;20054;-65
2023/01/18 07:33:41;;;;;;;92.53;15.95;;;;;;;2.64;100.00;97253.22;5139512;28;20051;-71
2023/01/18 07:36:09;;;;;;;61.42;13.13;;;;;;;2.57;100.00;97254.66;5139534;28;20043;-65
2023/01/18 07:38:36;;;;;;;94.80;17.67;;;;;;;2.83;100.00;97251.25;5139542;28;20410;-58
2023/01/18 07:41:06;;;;;;;78.70;17.13;;;;;;;2.76;100.00;97243.00;5139693;28;20043;-67
2023/01/18 07:43:36;;;;;;;106.40;17.88;;;;;;;2.58;100.00;97236.50;5139112;28;20473;-66
2023/01/18 07:46:04;;;;;;;56.08;16.13;;;;;;;2.75;100.00;97225.19;5139636;28;20137;-66
2023/01/18 07:48:31;;;;;;;70.60;16.35;;;;;;;2.74;100.00;97223.63;5139102;28;20047;-70
2023/01/18 07:50:58;;;;;;;75.88;18.15;;;;;;;2.77;100.00;97212.09;5139580;28;20051;-73
2023/01/18 07:53:26;;;;;;;62.63;17.52;;;;;;;2.88;100.00;97195.25;5139248;28;20054;-69
2023/01/18 07:55:53;;;;;;;109.97;19.40;;;;;;;2.88;100.00;97182.50;5139664;28;20087;-67
2023/01/18 07:58:19;;;;;;;133.77;20.60;;;;;;;2.96;100.00;97183.38;5139592;28;20047;-73
2023/01/18 08:00:46;;;;;;;101.95;19.30;;;;;;;2.92;100.00;97177.91;5139136;28;20051;-69
2023/01/18 08:03:13;;;;;;;77.82;20.48;;;;;;;2.79;100.00;97174.63;5138846;28;20142;-70
2023/01/18 08:05:41;;;;;;;99.88;18.58;;;;;;;2.94;100.00;97174.88;5139072;28;20058;-69
2023/01/18 08:08:09;;;;;;;91.20;18.90;;;;;;;2.83;100.00;97163.84;5139366;28;20059;-66
2023/01/18 08:10:36;;;;;;;98.40;18.77;;;;;;;2.87;100.00;97162.00;5139353;28;20048;-68
2023/01/18 08:13:02;;;;;;;102.82;19.58;;;;;;;3.15;100.00;97141.91;5139188;28;20054;-69
2023/01/18 08:15:29;;;;;;;91.43;20.00;;;;;;;3.09;100.00;97144.16;5138960;28;20050;-68
2023/01/18 08:17:55;;;;;;;50.38;18.13;;;;;;;2.88;100.00;97141.91;5139155;28;20047;-66
2023/01/18 08:20:22;;;;;;;61.53;17.60;;;;;;;3.03;100.00;97132.88;5138718;28;20420;-64
2023/01/18 08:22:54;;;;;;;65.82;19.75;;;;;;;2.86;100.00;97155.00;5138983;28;20054;-63
2023/01/18 08:25:20;;;;;;;52.58;19.40;;;;;;;2.99;100.00;97140.13;5138517;28;20051;-61
2023/01/18 08:27:47;;;;;;;51.63;17.35;;;;;;;2.88;100.00;97122.19;5138524;28;20149;-70
2023/01/18 08:30:13;;;;;;;51.50;17.63;;;;;;;2.96;100.00;97115.72;5138847;28;20067;-60
2023/01/18 08:32:40;;;;;;;67.97;20.35;;;;;;;2.86;100.00;97124.47;5138667;28;20082;-63
2023/01/18 08:35:08;;;;;;;74.35;17.55;;;;;;;2.75;100.00;97124.31;5138992;28;20059;-67
2023/01/18 08:37:34;;;;;;;52.83;16.48;;;;;;;2.90;100.00;97114.47;5138460;28;20047;-67
2023/01/18 08:40:00;;;;;;;47.65;17.58;;;;;;;2.83;100.00;97125.97;5138302;28;20424;-64
2023/01/18 08:42:26;;;;;;;54.47;17.65;;;;;;;2.99;100.00;97121.19;5137333;27;20146;-72
2023/01/18 08:44:53;;;;;;;50.53;16.05;;;;;;;2.85;100.00;97125.63;5138890;28;20055;-63
2023/01/18 08:47:19;;;;;;;46.13;17.48;;;;;;;3.14;100.00;97105.94;5138255;28;20154;-70
2023/01/18 08:49:45;;;;;;;44.40;16.92;;;;;;;3.09;100.00;97121.72;5138788;28;20361;-66
2023/01/18 08:52:14;;;;;;;34.67;14.05;;;;;;;2.96;100.00;97119.19;5138173;28;20059;-68
2023/01/18 08:54:40;;;;;;;47.15;18.42;;;;;;;3.06;100.00;97118.56;5138357;28;20130;-67
2023/01/18 08:57:08;;;;;;;44.42;17.17;;;;;;;3.18;100.00;97114.09;5137976;28;20103;-68
2023/01/18 08:59:34;;;;;;;48.80;17.63;;;;;;;3.01;100.00;97124.31;5137888;28;20091;-71
2023/01/18 09:02:00;;;;;;;48.30;17.73;;;;;;;3.24;100.00;97096.41;5138129;28;20323;-63
2023/01/18 09:04:29;;;;;;;40.88;16.58;;;;;;;3.19;100.00;97102.13;5138050;28;20507;-69
2023/01/18 09:06:55;;;;;;;35.53;15.40;;;;;;;3.42;100.00;97093.91;5138319;28;20055;-64
2023/01/18 09:09:22;;;;;;;43.08;15.73;;;;;;;3.40;100.00;97097.00;5138141;28;20110;-69
2023/01/18 09:11:50;;;;;;;42.25;16.42;;;;;;;3.40;100.00;97098.91;5138370;28;20372;-67
2023/01/18 09:14:16;;;;;;;36.97;15.63;;;;;;;3.46;100.00;97087.38;5137958;28;20055;-65
2023/01/18 09:16:42;;;;;;;35.03;14.95;;;;;;;3.36;100.00;97098.84;5138047;28;20059;-70
2023/01/18 09:19:08;;;;;;;32.30;13.88;;;;;;;3.32;100.00;97092.63;5138224;28;20111;-65
2023/01/18 09:21:35;;;;;;;31.67;13.75;;;;;;;3.26;100.00;97094.09;5138268;28;20055;-64
2023/01/18 09:24:01;;;;;;;36.65;16.35;;;;;;;3.14;100.00;97097.03;5137720;28;20469;-70
2023/01/18 09:26:29;;;;;;;35.72;16.05;;;;;;;3.28;100.00;97081.75;5137658;28;20058;-67
2023/01/18 09:28:55;;;;;;;28.98;14.77;;;;;;;3.43;100.00;97074.59;5137666;28;20051;-70
2023/01/18 09:31:25;;;;;;;37.90;16.63;;;;;;;3.53;100.00;97079.38;5137548;28;20086;-68
2023/01/18 09:33:51;;;;;;;29.33;14.25;;;;;;;3.47;100.00;97077.34;5137791;28;20366;-64
2023/01/18 09:36:20;;;;;;;46.03;19.73;;;;;;;3.40;100.00;97086.16;5137290;28;20107;-70
2023/01/18 09:38:46;;;;;;;30.00;13.73;;;;;;;3.41;100.00;97082.31;5137790;28;20073;-65
2023/01/18 09:41:27;;;;;;;30.45;13.27;;;;;;;3.22;100.00;97090.56;5137351;28;20138;-69
2023/01/18 09:43:57;;;;;;;29.63;14.20;;;;;;;3.34;100.00;97084.94;5137717;28;20350;-66
2023/01/18 09:46:24;;;;;;;39.97;15.02;;;;;;;3.61;100.00;97076.72;5137562;28;20051;-65
2023/01/18 09:48:54;;;;;;;32.05;14.95;;;;;;;3.45;100.00;97088.53;5137518;28;20129;-67
2023/01/18 09:51:24;;;;;;;38.17;16.95;;;;;;;3.48;100.00;97076.97;5137567;28;20324;-69
2023/01/18 09:54:03;;;;;;;33.55;16.90;;;;;;;3.53;100.00;97089.41;5137196;27;20370;-65
2023/01/18 09:56:35;;;;;;;32.03;13.60;;;;;;;3.53;100.00;97081.25;5137444;28;20380;-64
2023/01/18 09:59:12;;;;;;;29.17;15.77;;;;;;;3.58;100.00;97086.38;5137142;28;20055;-69
2023/01/18 10:01:38;;;;;;;28.35;13.10;;;;;;;3.50;100.00;97084.75;5137439;28;20077;-68
2023/01/18 10:04:14;;;;;;;29.08;14.32;;;;;;;3.66;100.00;97084.50;5137000;28;20055;-69
2023/01/18 10:06:47;;;;;;;30.58;14.30;;;;;;;3.77;100.00;97077.31;5137038;28;20090;-63
2023/01/18 10:09:17;;;;;;;34.90;14.43;;;;;;;3.71;100.00;97078.78;5137206;28;20393;-67
2023/01/18 10:11:49;;;;;;;20.27;10.82;;;;;;;3.56;100.00;97077.03;5137078;28;20047;-69
2023/01/18 10:14:24;;;;;;;22.05;10.70;;;;;;;3.50;100.00;97096.34;5137221;28;20062;-69
2023/01/18 10:16:56;;;;;;;16.58;10.10;;;;;;;3.56;100.00;97068.91;5136744;28;20047;-65
2023/01/18 10:19:26;;;;;;;23.52;10.80;;;;;;;3.63;100.00;97074.41;5137327;28;20046;-67
2023/01/18 10:21:58;;;;;;;23.23;12.35;;;;;;;3.51;100.00;97076.22;5136823;28;20048;-65
2023/01/18 10:24:35;;;;;;;22.17;11.02;;;;;;;3.67;100.00;97069.84;5137318;28;20393;-69
2023/01/18 10:27:16;;;;;;;19.73;10.23;;;;;;;3.63;100.00;97063.56;5136799;28;20047;-66
2023/01/18 10:29:55;;;;;;;23.13;11.50;;;;;;;3.88;100.00;97061.16;5136790;28;20051;-69
2023/01/18 10:32:25;;;;;;;20.15;10.40;;;;;;;4.01;100.00;97065.16;5136998;28;20306;-68
2023/01/18 10:34:51;;;;;;;26.80;10.77;;;;;;;3.70;100.00;97058.25;5136646;28;20051;-69
2023/01/18 10:37:28;;;;;;;18.35;9.90;;;;;;;3.60;100.00;97062.41;5136886;28;20055;-68
2023/01/18 10:39:58;;;;;;;21.42;8.90;;;;;;;3.61;100.00;97055.06;5136583;28;20050;-66
2023/01/18 10:42:28;;;;;;;23.50;11.43;;;;;;;3.63;100.00;97044.59;5136941;28;20058;-69
2023/01/18 10:44:56;;;;;;;35.13;15.80;;;;;;;3.56;100.00;97029.06;5136756;28;20120;-64
2023/01/18 10:47:22;;;;;;;33.42;14.63;;;;;;;3.58;100.00;97034.91;5136721;28;20395;-63
2023/01/18 10:49:50;;;;;;;27.48;12.00;;;;;;;3.78;100.00;97017.28;5136810;28;20043;-68
2023/01/18 10:52:25;;;;;;;21.60;10.48;;;;;;;3.87;100.00;97016.22;5136373;28;20046;-66
2023/01/18 10:54:55;;;;;;;24.98;11.73;;;;;;;4.07;100.00;97011.38;5136364;28;20051;-68
2023/01/18 10:57:26;;;;;;;21.83;10.27;;;;;;;3.78;100.00;97027.38;5136474;28;20055;-65
2023/01/18 10:59:52;;;;;;;23.48;11.15;;;;;;;4.07;100.00;97028.41;5136769;28;20320;-64
2023/01/18 11:02:28;;;;;;;20.17;11.02;;;;;;;3.91;100.00;97036.00;5136168;28;20112;-68
2023/01/18 11:04:59;;;;;;;21.60;10.45;;;;;;;3.86;100.00;97033.63;5136866;27;20078;-68
2023/01/18 11:07:27;;;;;;;32.80;11.95;;;;;;;3.85;100.00;97034.78;5139482;28;20054;-65
2023/01/18 11:09:55;;;;;;;16.17;9.38;;;;;;;3.83;100.00;97032.44;5139950;28;20051;-63
2023/01/18 11:12:40;;;;;;;23.05;11.45;;;;;;;3.93;100.00;97033.69;5140116;28;20057;-63
2023/01/18 11:15:25;;;;;;;15.20;8.50;;;;;;;3.92;100.00;97034.84;5139660;28;20047;-68
2023/01/18 11:18:11;;;;;;;17.05;9.18;;;;;;;3.93;100.00;97026.34;5139854;28;20336;-69
2023/01/18 11:20:47;;;;;;;23.35;12.35;;;;;;;3.94;100.00;97029.84;5139772;28;20055;-68
2023/01/18 11:23:19;;;;;;;21.55;12.63;;;;;;;4.12;100.00;97014.50;5139662;28;20051;-69
2023/01/18 11:25:53;;;;;;;16.63;9.13;;;;;;;4.25;100.00;97023.13;5139673;28;20195;-67
2023/01/18 11:28:22;;;;;;;20.77;11.18;;;;;;;4.37;100.00;97017.44;5139769;28;20047;-64
2023/01/18 11:30:52;;;;;;;20.83;10.60;;;;;;;4.12;100.00;97030.00;5139867;28;20050;-66
2023/01/18 11:33:21;;;;;;;16.52;6.40;;;;;;;4.10;100.00;97026.88;5139416;28;20093;-66
2023/01/18 11:35:56;;;;;;;19.83;10.65;;;;;;;4.18;100.00;97026.56;5139598;28;20059;-68
2023/01/18 11:38:27;;;;;;;23.05;12.98;;;;;;;4.43;100.00;97026.78;5139242;28;20054;-68
2023/01/18 11:41:06;;;;;;;16.90;8.45;;;;;;;4.30;100.00;97036.38;5139828;28;20328;-69
2023/01/18 11:43:34;;;;;;;16.67;9.07;;;;;;;4.38;100.00;97037.19;5139513;28;20042;-64
2023/01/18 11:46:09;;;;;;;16.17;8.90;;;;;;;4.11;100.00;97036.59;5139176;28;20051;-67
2023/01/18 11:48:38;;;;;;;;;;;;;;;4.15;100.00;97032.75;5140014;28;20062;-67
2023/01/18 11:51:09;;;;;;;17.27;7.78;;;;;;;4.12;100.00;97019.16;5139256;28;19923;-65
2023/01/18 11:53:43;;;;;;;11.85;7.63;;;;;;;4.11;100.00;97023.81;5139409;28;20432;-63
2023/01/18 11:56:15;;;;;;;12.02;7.35;;;;;;;4.20;100.00;97023.50;5138917;28;20051;-68